createdAt,value
2018-09-18T00:00:58.874Z,8.36
2018-09-18T00:03:26.317Z,8.34
2018-09-18T00:05:53.913Z,8.31
2018-09-18T00:08:21.381Z,8.30
2018-09-18T00:10:48.867Z,8.34
2018-09-18T00:13:16.477Z,8.38
2018-09-18T00:15:43.961Z,8.37
2018-09-18T00:18:11.627Z,8.32
2018-09-18T00:20:39.263Z,8.33
2018-09-18T00:23:06.706Z,8.34
2018-09-18T00:25:34.965Z,8.36
2018-09-18T00:28:02.627Z,8.36
2018-09-18T00:30:30.129Z,8.36
2018-09-18T00:32:57.667Z,8.37
2018-09-18T00:35:25.357Z,8.40
2018-09-18T00:37:52.842Z,8.41
2018-09-18T00:40:20.259Z,8.40
2018-09-18T00:42:48.011Z,8.37
2018-09-18T00:45:15.439Z,8.35
2018-09-18T00:47:42.862Z,8.32
2018-09-18T00:50:10.789Z,8.35
2018-09-18T00:52:38.281Z,8.38
2018-09-18T00:55:05.800Z,8.41
2018-09-18T00:57:34.309Z,8.46
2018-09-18T01:00:01.734Z,8.48
2018-09-18T01:02:29.216Z,8.50
2018-09-18T01:04:56.779Z,8.51
2018-09-18T01:07:24.191Z,8.48
2018-09-18T01:09:51.708Z,8.43
2018-09-18T01:12:19.425Z,8.38
2018-09-18T01:14:46.907Z,8.30
2018-09-18T01:17:14.368Z,8.22
2018-09-18T01:19:42.278Z,8.16
2018-09-18T01:22:09.772Z,8.08
2018-09-18T01:24:37.276Z,8.06
2018-09-18T01:27:04.987Z,8.08
2018-09-18T01:29:32.460Z,8.13
2018-09-18T01:31:59.907Z,8.11
2018-09-18T01:34:27.523Z,8.24
2018-09-18T01:36:55.038Z,8.28
2018-09-18T01:39:22.500Z,8.24
2018-09-18T01:41:50.125Z,8.21
2018-09-18T01:44:17.576Z,8.18
2018-09-18T01:46:45.129Z,8.19
2018-09-18T01:49:13.076Z,8.24
2018-09-18T01:51:40.534Z,8.26
2018-09-18T01:54:07.937Z,8.28
2018-09-18T01:56:35.665Z,8.27
2018-09-18T01:59:03.160Z,8.19
2018-09-18T02:01:30.611Z,8.12
2018-09-18T02:03:58.250Z,8.10
2018-09-18T02:06:25.718Z,8.06
2018-09-18T02:08:53.124Z,8.02
2018-09-18T02:11:20.824Z,8.01
2018-09-18T02:13:48.347Z,7.99
2018-09-18T02:16:15.801Z,7.94
2018-09-18T02:18:43.544Z,7.92
2018-09-18T02:21:11.300Z,7.89
2018-09-18T02:23:38.700Z,7.55
2018-09-18T02:26:06.486Z,7.85
2018-09-18T02:28:33.989Z,7.83
2018-09-18T02:31:01.443Z,7.84
2018-09-18T02:33:29.171Z,7.85
2018-09-18T02:35:56.644Z,7.57
2018-09-18T02:38:24.124Z,7.92
2018-09-18T02:40:51.767Z,7.96
2018-09-18T02:43:19.258Z,7.98
2018-09-18T02:45:46.747Z,7.64
2018-09-18T02:48:14.322Z,8.04
2018-09-18T02:50:41.818Z,8.03
2018-09-18T02:53:09.296Z,8.06
2018-09-18T02:55:36.958Z,8.09
2018-09-18T02:58:04.616Z,8.13
2018-09-18T03:00:32.009Z,8.18
2018-09-18T03:02:59.691Z,8.22
2018-09-18T03:05:27.128Z,8.26
2018-09-18T03:07:54.567Z,8.27
2018-09-18T03:10:22.198Z,8.29
2018-09-18T03:12:49.621Z,8.29
2018-09-18T03:15:17.118Z,8.27
2018-09-18T03:17:45.005Z,8.26
2018-09-18T03:20:12.457Z,8.26
2018-09-18T03:22:40.000Z,8.27
2018-09-18T03:25:07.822Z,8.29
2018-09-18T03:27:35.292Z,8.31
2018-09-18T03:30:02.746Z,8.33
2018-09-18T03:32:30.299Z,8.35
2018-09-18T03:34:57.772Z,8.37
2018-09-18T03:37:25.267Z,8.37
2018-09-18T03:39:52.804Z,8.37
2018-09-18T03:42:20.289Z,8.38
2018-09-18T03:44:47.714Z,8.04
2018-09-18T03:47:15.474Z,8.40
2018-09-18T03:49:42.954Z,8.39
2018-09-18T03:52:10.407Z,8.40
2018-09-18T03:54:38.167Z,8.42
2018-09-18T03:57:05.607Z,8.43
2018-09-18T03:59:33.080Z,8.42
2018-09-18T04:02:00.673Z,8.32
2018-09-18T04:04:28.144Z,8.25
2018-09-18T04:06:55.648Z,8.22
2018-09-18T04:09:23.350Z,7.73
2018-09-18T04:11:50.821Z,8.19
2018-09-18T04:14:18.252Z,8.23
2018-09-18T04:16:45.887Z,8.27
2018-09-18T04:19:13.484Z,8.30
2018-09-18T04:21:41.829Z,8.26
2018-09-18T04:24:09.716Z,8.24
2018-09-18T04:26:39.394Z,8.22
2018-09-18T04:29:07.395Z,8.24
2018-09-18T04:31:35.193Z,8.28
2018-09-18T04:34:02.710Z,8.31
2018-09-18T04:36:30.128Z,8.35
2018-09-18T04:38:57.829Z,8.40
2018-09-18T04:41:25.344Z,8.42
2018-09-18T04:43:52.890Z,8.45
2018-09-18T04:46:20.505Z,8.46
2018-09-18T04:48:48.005Z,8.49
2018-09-18T04:51:15.452Z,8.49
2018-09-18T04:53:43.127Z,8.48
2018-09-18T04:56:10.670Z,8.48
2018-09-18T04:58:38.127Z,8.48
2018-09-18T05:01:05.845Z,8.50
2018-09-18T05:03:33.241Z,8.50
2018-09-18T05:06:01.178Z,8.48
2018-09-18T05:08:28.808Z,8.49
2018-09-18T05:10:56.261Z,8.51
2018-09-18T05:13:23.715Z,8.53
2018-09-18T05:15:51.290Z,8.54
2018-09-18T05:18:18.773Z,8.55
2018-09-18T05:20:46.244Z,8.56
2018-09-18T05:23:13.950Z,8.57
2018-09-18T05:25:41.762Z,8.58
2018-09-18T05:28:09.201Z,8.59
2018-09-18T05:30:36.872Z,8.60
2018-09-18T05:33:04.504Z,8.61
2018-09-18T05:35:31.956Z,8.64
2018-09-18T05:37:59.670Z,8.65
2018-09-18T05:40:27.128Z,8.66
2018-09-18T05:42:54.525Z,8.67
2018-09-18T05:45:22.208Z,8.69
2018-09-18T05:47:49.691Z,8.71
2018-09-18T05:50:17.135Z,8.70
2018-09-18T05:52:44.765Z,8.71
2018-09-18T05:55:12.343Z,8.72
2018-09-18T05:57:39.754Z,8.72
2018-09-18T06:00:07.413Z,8.73
2018-09-18T06:02:34.891Z,8.73
2018-09-18T06:05:02.326Z,8.74
2018-09-18T06:07:30.048Z,8.76
2018-09-18T06:09:57.577Z,8.77
2018-09-18T06:12:25.089Z,8.77
2018-09-18T06:14:52.826Z,8.78
2018-09-18T06:17:20.306Z,8.77
2018-09-18T06:19:47.787Z,8.73
2018-09-18T06:22:15.408Z,8.75
2018-09-18T06:24:42.855Z,8.77
2018-09-18T06:27:10.524Z,8.82
2018-09-18T06:29:38.226Z,8.85
2018-09-18T06:32:05.618Z,8.89
2018-09-18T06:34:33.078Z,8.92
2018-09-18T06:37:00.750Z,8.96
2018-09-18T06:39:28.255Z,9.00
2018-09-18T06:41:55.718Z,9.03
2018-09-18T06:44:23.421Z,9.08
2018-09-18T06:46:50.874Z,9.11
2018-09-18T06:49:18.376Z,9.15
2018-09-18T06:51:46.036Z,9.19
2018-09-18T06:54:13.471Z,9.21
2018-09-18T06:56:40.927Z,9.26
2018-09-18T06:59:08.642Z,9.29
2018-09-18T07:01:36.126Z,9.30
2018-09-18T07:04:03.591Z,9.31
2018-09-18T07:06:31.137Z,9.34
2018-09-18T07:08:58.596Z,9.38
2018-09-18T07:11:26.012Z,9.43
2018-09-18T07:13:53.721Z,9.46
2018-09-18T07:16:21.144Z,9.52
2018-09-18T07:18:48.674Z,9.55
2018-09-18T07:21:16.383Z,9.62
2018-09-18T07:23:43.834Z,9.68
2018-09-18T07:26:11.302Z,9.73
2018-09-18T07:28:39.084Z,9.77
2018-09-18T07:31:06.590Z,9.82
2018-09-18T07:33:34.027Z,9.86
2018-09-18T07:36:01.829Z,9.90
2018-09-18T07:38:29.290Z,9.93
2018-09-18T07:40:56.792Z,9.99
2018-09-18T07:43:24.357Z,10.05
2018-09-18T07:45:51.803Z,10.13
2018-09-18T07:48:19.209Z,10.21
2018-09-18T07:50:47.052Z,10.29
2018-09-18T07:53:14.520Z,10.38
2018-09-18T07:55:41.959Z,10.47
2018-09-18T07:58:09.603Z,10.56
2018-09-18T08:00:37.064Z,10.63
2018-09-18T08:03:04.578Z,10.73
2018-09-18T08:05:32.356Z,10.81
2018-09-18T08:07:59.813Z,10.88
2018-09-18T08:10:27.332Z,10.94
2018-09-18T08:12:55.051Z,11.01
2018-09-18T08:15:22.559Z,11.06
2018-09-18T08:17:49.986Z,11.11
2018-09-18T08:20:17.666Z,11.19
2018-09-18T08:22:45.131Z,11.28
2018-09-18T08:25:12.621Z,11.38
2018-09-18T08:27:40.342Z,11.53
2018-09-18T08:30:08.191Z,11.64
2018-09-18T08:32:35.735Z,11.73
2018-09-18T08:35:03.499Z,11.84
2018-09-18T08:37:30.927Z,11.94
2018-09-18T08:39:58.481Z,12.03
2018-09-18T08:42:26.171Z,12.15
2018-09-18T08:44:53.648Z,12.26
2018-09-18T08:47:21.089Z,12.35
2018-09-18T08:49:48.745Z,12.42
2018-09-18T08:52:16.314Z,12.53
2018-09-18T08:54:43.772Z,12.64
2018-09-18T08:57:11.442Z,12.74
2018-09-18T08:59:38.985Z,12.83
2018-09-18T09:02:06.577Z,12.91
2018-09-18T09:04:34.224Z,12.99
2018-09-18T09:07:01.683Z,13.08
2018-09-18T09:09:29.232Z,13.16
2018-09-18T09:11:56.906Z,13.22
2018-09-18T09:14:24.418Z,13.29
2018-09-18T09:16:51.832Z,13.36
2018-09-18T09:19:19.517Z,13.42
2018-09-18T09:21:47.091Z,13.50
2018-09-18T09:24:14.519Z,13.57
2018-09-18T09:26:42.203Z,13.64
2018-09-18T09:29:09.615Z,13.69
2018-09-18T09:31:37.496Z,13.77
2018-09-18T09:34:05.162Z,13.85
2018-09-18T09:36:32.644Z,13.91
2018-09-18T09:39:00.093Z,13.99
2018-09-18T09:41:27.852Z,14.08
2018-09-18T09:43:55.357Z,14.15
2018-09-18T09:46:22.809Z,14.24
2018-09-18T09:48:50.558Z,14.31
2018-09-18T09:51:18.188Z,14.39
2018-09-18T09:53:45.634Z,14.45
2018-09-18T09:56:13.373Z,14.49
2018-09-18T09:58:41.034Z,14.53
2018-09-18T10:01:13.986Z,14.58
2018-09-18T10:03:41.558Z,14.61
2018-09-18T10:06:08.982Z,14.65
2018-09-18T10:08:36.449Z,14.69
2018-09-18T10:11:04.220Z,14.73
2018-09-18T10:13:31.737Z,14.76
2018-09-18T10:15:59.172Z,14.80
2018-09-18T10:18:26.692Z,14.84
2018-09-18T10:20:54.190Z,14.88
2018-09-18T10:23:21.661Z,14.94
2018-09-18T10:25:49.379Z,15.03
2018-09-18T10:28:16.879Z,15.13
2018-09-18T10:30:44.335Z,15.16
2018-09-18T10:33:12.239Z,15.34
2018-09-18T10:35:39.675Z,15.42
2018-09-18T10:38:07.093Z,15.50
2018-09-18T10:40:34.645Z,15.53
2018-09-18T10:43:02.174Z,15.54
2018-09-18T10:45:29.681Z,15.55
2018-09-18T10:47:57.461Z,15.53
2018-09-18T10:50:25.043Z,15.53
2018-09-18T10:52:52.525Z,15.52
2018-09-18T10:55:20.121Z,15.52
2018-09-18T10:57:47.873Z,15.50
2018-09-18T11:00:15.368Z,15.46
2018-09-18T11:02:43.142Z,15.46
2018-09-18T11:05:10.652Z,15.43
2018-09-18T11:07:38.244Z,15.41
2018-09-18T11:10:06.061Z,15.29
2018-09-18T11:12:33.512Z,15.46
2018-09-18T11:15:01.044Z,15.52
2018-09-18T11:17:28.693Z,15.59
2018-09-18T11:19:56.154Z,15.66
2018-09-18T11:22:23.807Z,15.73
2018-09-18T11:24:51.416Z,15.77
2018-09-18T11:27:18.905Z,15.81
2018-09-18T11:29:46.391Z,15.84
2018-09-18T11:32:14.148Z,15.87
2018-09-18T11:34:41.778Z,15.92
2018-09-18T11:37:09.228Z,15.96
2018-09-18T11:39:36.866Z,15.95
2018-09-18T11:42:04.328Z,15.96
2018-09-18T11:44:31.804Z,15.90
2018-09-18T11:46:59.431Z,15.91
2018-09-18T11:49:26.940Z,15.92
2018-09-18T11:51:54.432Z,15.89
2018-09-18T11:54:22.124Z,15.90
2018-09-18T11:56:49.578Z,15.91
2018-09-18T11:59:17.036Z,15.96
2018-09-18T12:01:44.806Z,16.02
2018-09-18T12:04:12.330Z,16.04
2018-09-18T12:06:39.792Z,16.05
2018-09-18T12:09:08.558Z,16.09
2018-09-18T12:11:36.019Z,16.16
2018-09-18T12:14:03.447Z,16.23
2018-09-18T12:16:31.309Z,16.29
2018-09-18T12:18:58.750Z,16.36
2018-09-18T12:21:26.195Z,16.37
2018-09-18T12:23:53.944Z,16.37
2018-09-18T12:26:21.364Z,16.37
2018-09-18T12:28:48.845Z,16.37
2018-09-18T12:31:16.498Z,16.38
2018-09-18T12:33:43.977Z,16.42
2018-09-18T12:36:11.565Z,16.44
2018-09-18T12:38:39.119Z,16.46
2018-09-18T12:41:06.615Z,16.51
2018-09-18T12:43:34.057Z,16.60
2018-09-18T12:46:01.664Z,16.68
2018-09-18T12:48:29.145Z,16.71
2018-09-18T12:50:56.659Z,16.69
2018-09-18T12:53:24.247Z,16.65
2018-09-18T12:55:51.690Z,16.59
2018-09-18T12:58:19.199Z,16.53
2018-09-18T13:00:46.974Z,16.51
2018-09-18T13:03:14.412Z,16.47
2018-09-18T13:05:41.852Z,16.44
2018-09-18T13:08:09.584Z,16.38
2018-09-18T13:10:36.985Z,16.32
2018-09-18T13:13:04.644Z,16.28
2018-09-18T13:15:32.320Z,16.28
2018-09-18T13:17:59.982Z,16.28
2018-09-18T13:20:27.493Z,16.22
2018-09-18T13:22:55.132Z,16.13
2018-09-18T13:25:22.655Z,16.07
2018-09-18T13:27:50.173Z,15.99
2018-09-18T13:30:17.773Z,15.95
2018-09-18T13:32:45.442Z,15.90
2018-09-18T13:35:12.790Z,15.87
2018-09-18T13:37:40.747Z,15.85
2018-09-18T13:40:08.392Z,15.84
2018-09-18T13:42:35.797Z,15.86
2018-09-18T13:45:03.666Z,15.89
2018-09-18T13:47:31.105Z,15.90
2018-09-18T13:49:58.566Z,15.88
2018-09-18T13:52:26.238Z,15.85
2018-09-18T13:54:53.731Z,15.86
2018-09-18T13:57:21.193Z,15.88
2018-09-18T13:59:48.959Z,15.87
2018-09-18T14:02:16.522Z,15.84
2018-09-18T14:04:44.039Z,15.83
2018-09-18T14:07:11.675Z,15.81
2018-09-18T14:09:39.111Z,15.81
2018-09-18T14:12:06.648Z,15.80
2018-09-18T14:14:34.271Z,15.75
2018-09-18T14:17:01.747Z,15.68
2018-09-18T14:19:29.189Z,15.59
2018-09-18T14:21:56.787Z,15.53
2018-09-18T14:24:24.224Z,15.48
2018-09-18T14:26:51.789Z,15.41
2018-09-18T14:29:19.381Z,15.33
2018-09-18T14:31:46.841Z,15.29
2018-09-18T14:34:14.321Z,15.26
2018-09-18T14:36:48.661Z,15.23
2018-09-18T14:39:16.265Z,15.19
2018-09-18T14:41:43.730Z,15.17
2018-09-18T14:44:11.369Z,15.13
2018-09-18T14:46:38.950Z,15.09
2018-09-18T14:49:06.383Z,15.04
2018-09-18T14:51:33.977Z,15.01
2018-09-18T14:54:01.464Z,14.97
2018-09-18T14:56:28.949Z,14.98
2018-09-18T14:58:56.549Z,15.00
2018-09-18T15:01:24.003Z,15.01
2018-09-18T15:03:51.474Z,15.04
2018-09-18T15:06:19.082Z,15.04
2018-09-18T15:08:47.205Z,15.04
2018-09-18T15:11:14.752Z,15.06
2018-09-18T15:13:42.275Z,15.06
2018-09-18T15:16:09.712Z,15.05
2018-09-18T15:18:37.156Z,14.99
2018-09-18T15:21:04.784Z,14.97
2018-09-18T15:23:32.220Z,14.97
2018-09-18T15:25:59.667Z,14.96
2018-09-18T15:28:27.351Z,14.96
2018-09-18T15:30:54.829Z,14.95
2018-09-18T15:33:22.345Z,14.89
2018-09-18T15:35:50.054Z,14.89
2018-09-18T15:38:17.526Z,14.87
2018-09-18T15:40:45.226Z,14.42
2018-09-18T15:43:12.883Z,14.83
2018-09-18T15:45:40.367Z,14.84
2018-09-18T15:48:07.822Z,14.84
2018-09-18T15:50:35.601Z,14.84
2018-09-18T15:53:03.016Z,14.87
2018-09-18T15:55:30.465Z,14.86
2018-09-18T15:57:58.221Z,14.85
2018-09-18T16:00:25.609Z,14.85
2018-09-18T16:02:53.021Z,14.82
2018-09-18T16:05:20.676Z,14.81
2018-09-18T16:07:48.145Z,14.81
2018-09-18T16:10:15.607Z,14.80
2018-09-18T16:12:43.373Z,14.79
2018-09-18T16:15:10.892Z,14.80
2018-09-18T16:17:38.340Z,14.79
2018-09-18T16:20:06.035Z,14.77
2018-09-18T16:22:33.616Z,14.73
2018-09-18T16:25:01.139Z,14.72
2018-09-18T16:27:28.702Z,14.74
2018-09-18T16:29:56.100Z,14.76
2018-09-18T16:32:23.561Z,14.76
2018-09-18T16:34:51.293Z,14.76
2018-09-18T16:37:18.827Z,14.77
2018-09-18T16:39:46.261Z,14.79
2018-09-18T16:42:14.060Z,14.76
2018-09-18T16:44:41.514Z,14.69
2018-09-18T16:47:08.994Z,14.67
2018-09-18T16:49:36.698Z,14.68
2018-09-18T16:52:04.245Z,14.69
2018-09-18T16:54:32.334Z,14.70
2018-09-18T16:56:59.912Z,14.69
2018-09-18T16:59:27.346Z,14.69
2018-09-18T17:01:54.796Z,14.66
2018-09-18T17:04:22.471Z,14.60
2018-09-18T17:06:50.027Z,14.52
2018-09-18T17:09:18.317Z,14.49
2018-09-18T17:11:46.052Z,14.49
2018-09-18T17:14:13.461Z,14.49
2018-09-18T17:16:40.965Z,14.49
2018-09-18T17:19:08.608Z,14.53
2018-09-18T17:21:36.064Z,14.56
2018-09-18T17:24:03.525Z,14.59
2018-09-18T17:26:32.082Z,14.61
2018-09-18T17:28:59.659Z,14.58
2018-09-18T17:31:27.106Z,14.55
2018-09-18T17:33:54.795Z,14.55
2018-09-18T17:36:22.309Z,14.56
2018-09-18T17:38:49.825Z,14.56
2018-09-18T17:41:17.448Z,14.59
2018-09-18T17:44:47.942Z,14.61
2018-09-18T17:47:15.524Z,14.61
2018-09-18T17:49:43.056Z,14.62
2018-09-18T17:52:10.488Z,14.63
2018-09-18T17:54:38.085Z,14.61
2018-09-18T17:57:06.444Z,14.61
2018-09-18T17:59:35.939Z,14.62
2018-09-18T18:02:03.505Z,14.61
2018-09-18T18:04:30.951Z,14.61
2018-09-18T18:06:58.488Z,14.63
2018-09-18T18:09:26.096Z,14.63
2018-09-18T18:11:53.768Z,14.62
2018-09-18T18:14:21.666Z,14.61
2018-09-18T18:16:49.399Z,14.62
2018-09-18T18:19:16.842Z,14.60
2018-09-18T18:21:44.318Z,14.57
2018-09-18T18:24:11.897Z,14.54
2018-09-18T18:26:39.389Z,14.53
2018-09-18T18:29:06.852Z,14.54
2018-09-18T18:31:34.465Z,14.49
2018-09-18T18:34:01.962Z,14.48
2018-09-18T18:36:29.512Z,14.47
2018-09-18T18:38:57.123Z,14.46
2018-09-18T18:41:24.550Z,14.46
2018-09-18T18:43:52.025Z,14.46
2018-09-18T18:46:19.684Z,14.45
2018-09-18T18:48:47.162Z,14.44
2018-09-18T18:51:14.607Z,14.43
2018-09-18T18:53:42.256Z,14.41
2018-09-18T18:56:09.684Z,14.41
2018-09-18T18:58:37.154Z,14.38
2018-09-18T19:01:04.763Z,14.35
2018-09-18T19:03:32.248Z,14.33
2018-09-18T19:05:59.691Z,14.31
2018-09-18T19:08:27.285Z,14.23
2018-09-18T19:10:54.798Z,14.12
2018-09-18T19:13:22.297Z,14.06
2018-09-18T19:15:49.974Z,14.02
2018-09-18T19:18:17.505Z,13.98
2018-09-18T19:20:44.929Z,13.97
2018-09-18T19:23:12.658Z,13.98
2018-09-18T19:25:40.129Z,14.01
2018-09-18T19:28:07.607Z,14.03
2018-09-18T19:30:35.144Z,14.05
2018-09-18T19:33:02.590Z,14.05
2018-09-18T19:35:30.001Z,14.05
2018-09-18T19:37:57.448Z,14.05
2018-09-18T19:40:24.924Z,14.04
2018-09-18T19:42:52.439Z,14.02
2018-09-18T19:45:20.099Z,14.02
2018-09-18T19:47:47.671Z,13.98
2018-09-18T19:50:16.512Z,13.95
2018-09-18T19:52:45.044Z,13.96
2018-09-18T19:55:12.937Z,13.94
2018-09-18T19:57:40.438Z,13.91
2018-09-18T20:00:08.547Z,13.88
2018-09-18T20:02:36.007Z,13.87
2018-09-18T20:05:03.479Z,13.85
2018-09-18T20:07:31.425Z,13.84
2018-09-18T20:09:58.945Z,13.85
2018-09-18T20:12:26.417Z,13.86
2018-09-18T20:14:54.148Z,13.88
2018-09-18T20:17:21.571Z,13.86
2018-09-18T20:19:49.036Z,13.85
2018-09-18T20:22:16.639Z,13.85
2018-09-18T20:24:44.108Z,13.84
2018-09-18T20:27:11.598Z,13.87
2018-09-18T20:29:39.325Z,13.84
2018-09-18T20:32:06.723Z,13.84
2018-09-18T20:34:34.194Z,13.83
2018-09-18T20:37:01.805Z,13.80
2018-09-18T20:39:29.213Z,13.69
2018-09-18T20:41:56.701Z,13.66
2018-09-18T20:44:24.324Z,13.68
2018-09-18T20:46:51.777Z,13.70
2018-09-18T20:49:19.267Z,13.66
2018-09-18T20:51:46.903Z,13.66
2018-09-18T20:54:14.384Z,13.65
2018-09-18T20:56:41.872Z,13.63
2018-09-18T20:59:09.402Z,13.62
2018-09-18T21:01:36.871Z,13.61
2018-09-18T21:04:04.358Z,13.61
2018-09-18T21:06:31.932Z,13.59
2018-09-18T21:08:59.416Z,13.55
2018-09-18T21:11:26.899Z,13.49
2018-09-18T21:13:54.527Z,13.45
2018-09-18T21:16:21.993Z,13.45
2018-09-18T21:18:49.511Z,13.43
2018-09-18T21:21:17.022Z,13.44
2018-09-18T21:23:44.497Z,13.44
2018-09-18T21:26:14.075Z,13.44
2018-09-18T21:28:41.640Z,13.45
2018-09-18T21:31:09.232Z,13.44
2018-09-18T21:33:36.745Z,13.42
2018-09-18T21:36:04.403Z,13.41
2018-09-18T21:38:32.127Z,13.40
2018-09-18T21:41:00.157Z,13.39
2018-09-18T21:43:28.330Z,13.37
2018-09-18T21:45:55.813Z,13.35
2018-09-18T21:48:23.267Z,13.33
2018-09-18T21:50:51.198Z,13.28
2018-09-18T21:53:18.734Z,13.25
2018-09-18T21:55:46.374Z,13.13
2018-09-18T21:58:14.078Z,13.21
2018-09-18T22:00:42.057Z,13.19
2018-09-18T22:03:09.710Z,13.17
2018-09-18T22:05:37.578Z,13.16
2018-09-18T22:08:05.180Z,13.14
2018-09-18T22:10:32.814Z,13.13
2018-09-18T22:13:01.129Z,13.11
2018-09-18T22:15:29.297Z,13.10
2018-09-18T22:17:56.954Z,13.08
2018-09-18T22:20:24.819Z,13.05
2018-09-18T22:22:52.405Z,13.05
2018-09-18T22:25:20.783Z,13.05
2018-09-18T22:27:48.745Z,13.02
2018-09-18T22:30:16.418Z,13.02
2018-09-18T22:32:44.027Z,13.01
2018-09-18T22:35:11.806Z,13.01
2018-09-18T22:37:39.384Z,13.00
2018-09-18T22:40:07.039Z,12.98
2018-09-18T22:42:34.817Z,12.95
2018-09-18T22:45:02.400Z,12.86
2018-09-18T22:47:30.022Z,12.82
2018-09-18T22:49:57.640Z,12.80
2018-09-18T22:52:25.293Z,12.80
2018-09-18T22:54:52.728Z,12.80
2018-09-18T22:57:20.319Z,12.78
2018-09-18T22:59:47.830Z,12.77
2018-09-18T23:02:15.245Z,12.75
2018-09-18T23:04:42.857Z,12.73
2018-09-18T23:07:10.337Z,12.72
2018-09-18T23:09:37.789Z,12.71
2018-09-18T23:12:05.418Z,12.69
2018-09-18T23:14:32.914Z,12.68
2018-09-18T23:17:00.339Z,12.67
2018-09-18T23:19:28.235Z,12.67
2018-09-18T23:21:55.669Z,12.66
2018-09-18T23:24:23.158Z,12.66
2018-09-18T23:26:50.848Z,12.66
2018-09-18T23:29:18.237Z,12.63
2018-09-18T23:31:45.679Z,12.63
2018-09-18T23:34:13.414Z,12.62
2018-09-18T23:36:40.875Z,12.59
2018-09-18T23:39:08.825Z,12.59
2018-09-18T23:41:36.556Z,12.59
2018-09-18T23:44:03.980Z,12.57
2018-09-18T23:46:31.439Z,12.56
2018-09-18T23:48:59.045Z,12.54
2018-09-18T23:51:26.681Z,12.41
2018-09-18T23:53:54.674Z,12.28
2018-09-18T23:56:22.397Z,12.16
2018-09-18T23:58:49.835Z,12.10
